createdAt,value
2023-01-10T00:00:41.764Z,100202.77
2023-01-10T00:03:31.143Z,100192.82
2023-01-10T00:06:04.468Z,100207.86
2023-01-10T00:08:37.709Z,100209.25
2023-01-10T00:11:29.587Z,100210.34
2023-01-10T00:14:05.506Z,100204.80
2023-01-10T00:16:39.905Z,100193.46
2023-01-10T00:19:13.606Z,100190.95
2023-01-10T00:21:47.078Z,100184.13
2023-01-10T00:24:21.058Z,100178.41
2023-01-10T00:26:55.303Z,100187.02
2023-01-10T00:29:32.018Z,100189.31
2023-01-10T00:32:05.596Z,100187.38
2023-01-10T00:34:39.066Z,100188.90
2023-01-10T00:37:12.502Z,100185.48
2023-01-10T00:39:45.532Z,100176.64
2023-01-10T00:42:37.397Z,100170.84
2023-01-10T00:45:12.486Z,100179.01
2023-01-10T00:47:45.738Z,100167.95
2023-01-10T00:50:19.109Z,100156.19
2023-01-10T00:52:52.319Z,100162.58
2023-01-10T00:55:25.378Z,100152.33
2023-01-10T00:57:58.420Z,100150.31
2023-01-10T01:00:31.816Z,100150.94
2023-01-10T01:03:05.824Z,100155.80
2023-01-10T01:05:49.588Z,100134.04
2023-01-10T01:08:23.092Z,100142.66
2023-01-10T01:10:55.767Z,100142.49
2023-01-10T01:13:28.917Z,100144.27
2023-01-10T01:16:02.776Z,100144.52
2023-01-10T01:18:35.696Z,100142.87
2023-01-10T01:21:09.045Z,100137.58
2023-01-10T01:23:42.708Z,100125.11
2023-01-10T01:26:15.572Z,100134.40
2023-01-10T01:28:48.322Z,100130.03
2023-01-10T01:31:20.986Z,100125.91
2023-01-10T01:33:54.043Z,100129.09
2023-01-10T01:36:26.963Z,100118.59
2023-01-10T01:39:00.203Z,100123.85
2023-01-10T01:41:51.267Z,100125.16
2023-01-10T01:44:24.185Z,100121.89
2023-01-10T01:47:18.544Z,100119.08
2023-01-10T01:49:51.890Z,100112.11
2023-01-10T01:52:31.867Z,100107.30
2023-01-10T01:55:07.427Z,100107.61
2023-01-10T01:57:40.587Z,100110.08
2023-01-10T02:00:15.187Z,100111.75
2023-01-10T02:03:02.531Z,100090.63
2023-01-10T02:05:41.072Z,100098.70
2023-01-10T02:08:15.179Z,100082.41
2023-01-10T02:11:09.693Z,100082.17
2023-01-10T02:13:45.869Z,100079.41
2023-01-10T02:16:19.616Z,100068.64
2023-01-10T02:18:52.547Z,100073.91
2023-01-10T02:21:44.805Z,100060.84
2023-01-10T02:24:45.565Z,100073.41
2023-01-10T02:27:27.892Z,100069.39
2023-01-10T02:30:16.428Z,100065.65
2023-01-10T02:33:27.552Z,100066.45
2023-01-10T02:36:24.921Z,100071.70
2023-01-10T02:39:10.150Z,100077.71
2023-01-10T02:42:10.173Z,100055.23
2023-01-10T02:45:07.033Z,100058.56
2023-01-10T02:47:43.769Z,100066.56
2023-01-10T02:50:46.692Z,100064.39
2023-01-10T02:53:27.087Z,100059.60
2023-01-10T02:56:12.198Z,100053.96
2023-01-10T02:59:14.690Z,100040.62
2023-01-10T03:02:02.597Z,100046.47
2023-01-10T03:04:58.840Z,100047.36
2023-01-10T03:07:48.679Z,100034.95
2023-01-10T03:10:35.324Z,100044.36
2023-01-10T03:13:31.815Z,100042.45
2023-01-10T03:16:08.784Z,100042.13
2023-01-10T03:18:57.270Z,100048.18
2023-01-10T03:21:32.954Z,100030.96
2023-01-10T03:24:18.221Z,100045.81
2023-01-10T03:27:21.973Z,100043.46
2023-01-10T03:30:35.225Z,100042.55
2023-01-10T03:33:08.951Z,100041.13
2023-01-10T03:35:53.685Z,100035.29
2023-01-10T03:38:50.005Z,100025.33
2023-01-10T03:41:50.120Z,100032.65
2023-01-10T03:44:47.104Z,100034.89
2023-01-10T03:47:45.997Z,100038.53
2023-01-10T03:50:27.326Z,100043.83
2023-01-10T03:53:01.516Z,100027.90
2023-01-10T03:55:35.601Z,100025.75
2023-01-10T03:58:08.919Z,100033.73
2023-01-10T04:00:42.077Z,100028.19
2023-01-10T04:03:15.061Z,100026.55
2023-01-10T04:05:48.260Z,100030.17
2023-01-10T04:08:21.530Z,100039.71
2023-01-10T04:10:54.689Z,100029.55
2023-01-10T04:13:27.681Z,100024.14
2023-01-10T04:16:03.466Z,100034.09
2023-01-10T04:18:37.036Z,100029.64
2023-01-10T04:21:10.296Z,100034.94
2023-01-10T04:23:44.097Z,100020.64
2023-01-10T04:26:17.902Z,100039.22
2023-01-10T04:28:51.069Z,100041.88
2023-01-10T04:31:24.454Z,100043.83
2023-01-10T04:33:57.522Z,100046.84
2023-01-10T04:36:30.960Z,100048.54
2023-01-10T04:39:04.492Z,100026.86
2023-01-10T04:41:37.469Z,100040.38
2023-01-10T04:44:11.051Z,100046.35
2023-01-10T04:46:44.342Z,100039.63
2023-01-10T04:49:17.147Z,100038.88
2023-01-10T04:51:49.738Z,100046.05
2023-01-10T04:54:25.817Z,100043.02
2023-01-10T04:56:58.623Z,100029.33
2023-01-10T04:59:31.856Z,100028.13
2023-01-10T05:02:04.711Z,100028.98
2023-01-10T05:04:37.435Z,100030.07
2023-01-10T05:07:10.135Z,100025.48
2023-01-10T05:09:43.178Z,100027.56
2023-01-10T05:12:16.254Z,100018.24
2023-01-10T05:14:49.418Z,100027.24
2023-01-10T05:17:22.506Z,100026.37
2023-01-10T05:19:55.388Z,100034.14
2023-01-10T05:22:28.651Z,100030.40
2023-01-10T05:25:01.407Z,100041.52
2023-01-10T05:27:34.473Z,100041.02
2023-01-10T05:30:07.870Z,100023.80
2023-01-10T05:32:41.522Z,100014.09
2023-01-10T05:35:14.739Z,100019.04
2023-01-10T05:37:48.154Z,100032.48
2023-01-10T05:40:21.479Z,100026.98
2023-01-10T05:42:54.621Z,100015.42
2023-01-10T05:45:27.582Z,100011.74
2023-01-10T05:48:00.416Z,100027.94
2023-01-10T05:50:33.553Z,100034.73
2023-01-10T05:53:07.876Z,100036.90
2023-01-10T05:55:41.366Z,100031.39
2023-01-10T05:58:14.574Z,100032.10
2023-01-10T06:00:48.433Z,100036.05
2023-01-10T06:03:22.016Z,100006.11
2023-01-10T06:05:55.225Z,100014.85
2023-01-10T06:08:28.276Z,100032.45
2023-01-10T06:11:01.664Z,100028.79
2023-01-10T06:13:35.284Z,100025.17
2023-01-10T06:16:09.288Z,100025.27
2023-01-10T06:18:42.355Z,100025.05
2023-01-10T06:21:15.414Z,100015.29
2023-01-10T06:23:48.139Z,100028.60
2023-01-10T06:26:21.134Z,100022.95
2023-01-10T06:28:54.087Z,100024.08
2023-01-10T06:31:28.255Z,100004.55
2023-01-10T06:34:01.591Z,100023.69
2023-01-10T06:36:34.892Z,100028.39
2023-01-10T06:39:08.475Z,100026.84
2023-01-10T06:41:42.146Z,100027.91
2023-01-10T06:44:22.658Z,100014.10
2023-01-10T06:46:56.459Z,100014.67
2023-01-10T06:49:30.604Z,100017.69
2023-01-10T06:52:03.819Z,100029.21
2023-01-10T06:54:37.043Z,100023.25
2023-01-10T06:57:10.982Z,100019.83
2023-01-10T06:59:43.964Z,100034.13
2023-01-10T07:02:17.854Z,100034.98
2023-01-10T07:04:54.109Z,100037.66
2023-01-10T07:07:27.937Z,100029.11
2023-01-10T07:10:01.261Z,100036.59
2023-01-10T07:12:34.189Z,100039.82
2023-01-10T07:15:08.077Z,100029.58
2023-01-10T07:17:41.201Z,100033.72
2023-01-10T07:20:14.961Z,100034.16
2023-01-10T07:22:55.760Z,100025.39
2023-01-10T07:25:31.144Z,100015.60
2023-01-10T07:28:04.529Z,100033.05
2023-01-10T07:30:37.998Z,100034.63
2023-01-10T07:33:11.464Z,100026.52
2023-01-10T07:35:44.986Z,100032.58
2023-01-10T07:38:21.472Z,100036.58
2023-01-10T07:40:58.010Z,100033.05
2023-01-10T07:43:31.116Z,100037.45
2023-01-10T07:46:12.938Z,100034.30
2023-01-10T07:48:47.592Z,100020.79
2023-01-10T07:51:21.091Z,100023.31
2023-01-10T07:53:54.893Z,100034.06
2023-01-10T07:56:28.956Z,100035.28
2023-01-10T07:59:02.755Z,100021.34
2023-01-10T08:01:36.173Z,100038.30
2023-01-10T08:04:09.349Z,100037.27
2023-01-10T08:06:42.832Z,100041.05
2023-01-10T08:09:15.714Z,100040.83
2023-01-10T08:11:49.390Z,100039.30
2023-01-10T08:14:22.805Z,100029.55
2023-01-10T08:16:56.257Z,100030.94
2023-01-10T08:19:29.288Z,100038.93
2023-01-10T08:22:04.091Z,100042.45
2023-01-10T08:24:37.819Z,100041.27
2023-01-10T08:27:10.856Z,100047.25
2023-01-10T08:29:44.068Z,100021.08
2023-01-10T08:32:17.210Z,100034.91
2023-01-10T08:34:50.442Z,100053.03
2023-01-10T08:37:24.117Z,100045.69
2023-01-10T08:39:57.782Z,100060.02
2023-01-10T08:42:30.617Z,100049.02
2023-01-10T08:45:04.365Z,100057.80
2023-01-10T08:47:37.895Z,100053.43
2023-01-10T08:50:12.688Z,100058.20
2023-01-10T08:52:46.388Z,100053.45
2023-01-10T08:55:20.178Z,100057.94
2023-01-10T08:57:53.929Z,100053.45
2023-01-10T09:00:27.836Z,100055.39
2023-01-10T09:03:01.409Z,100057.41
2023-01-10T09:05:35.325Z,100054.13
2023-01-10T09:08:11.404Z,100053.55
2023-01-10T09:10:45.555Z,100051.95
2023-01-10T09:13:19.076Z,100047.27
2023-01-10T09:15:54.936Z,100040.79
2023-01-10T09:18:28.770Z,100035.83
2023-01-10T09:21:01.862Z,100021.85
2023-01-10T09:23:37.009Z,100029.88
2023-01-10T09:26:11.082Z,100030.48
2023-01-10T09:28:44.254Z,100015.33
2023-01-10T09:31:17.676Z,100025.58
2023-01-10T09:33:50.947Z,100025.88
2023-01-10T09:36:24.510Z,100024.41
2023-01-10T09:38:57.881Z,100017.92
2023-01-10T09:42:03.691Z,100012.80
2023-01-10T09:45:13.873Z,100021.70
2023-01-10T09:48:06.711Z,100010.89
2023-01-10T09:50:42.142Z,100024.68
2023-01-10T09:53:24.622Z,100023.07
2023-01-10T09:56:00.501Z,100010.00
2023-01-10T09:58:37.054Z,100020.90
2023-01-10T10:01:22.409Z,100003.37
2023-01-10T10:04:01.207Z,100015.48
2023-01-10T10:06:35.353Z,100010.95
2023-01-10T10:09:10.741Z,100022.17
2023-01-10T10:12:11.529Z,100023.04
2023-01-10T10:15:14.727Z,100009.91
2023-01-10T10:18:03.691Z,100015.69
2023-01-10T10:20:45.123Z,100008.72
2023-01-10T10:23:34.714Z,100000.91
2023-01-10T10:26:22.407Z,100010.66
2023-01-10T10:29:35.782Z,99996.67
2023-01-10T10:32:54.630Z,100002.89
2023-01-10T10:35:27.777Z,100022.07
2023-01-10T10:38:08.476Z,100024.66
2023-01-10T10:40:45.315Z,100030.09
2023-01-10T10:43:26.692Z,100019.98
2023-01-10T10:46:10.385Z,100012.27
2023-01-10T10:49:11.035Z,100021.16
2023-01-10T10:51:53.141Z,100019.00
2023-01-10T10:54:25.971Z,100012.17
2023-01-10T10:56:58.949Z,100009.38
2023-01-10T10:59:32.469Z,100013.30
2023-01-10T11:02:11.229Z,100017.80
2023-01-10T11:04:51.211Z,100001.23
2023-01-10T11:07:28.063Z,99991.27
2023-01-10T11:10:03.922Z,100004.52
2023-01-10T11:12:42.893Z,100012.27
2023-01-10T11:15:48.933Z,100009.55
2023-01-10T11:18:24.500Z,99997.43
2023-01-10T11:21:22.043Z,99992.40
2023-01-10T11:23:59.535Z,99997.40
2023-01-10T11:26:49.191Z,99989.25
2023-01-10T11:29:45.548Z,99993.97
2023-01-10T11:32:28.012Z,99987.46
2023-01-10T11:35:04.102Z,99989.15
2023-01-10T11:37:38.719Z,99995.80
2023-01-10T11:40:26.233Z,99993.98
2023-01-10T11:43:01.302Z,99997.40
2023-01-10T11:45:37.371Z,100002.08
2023-01-10T11:48:47.801Z,99994.17
2023-01-10T11:51:30.300Z,100001.05
2023-01-10T11:54:05.597Z,99996.29
2023-01-10T11:56:41.824Z,99993.73
2023-01-10T11:59:20.670Z,99986.73
2023-01-10T12:02:12.479Z,100001.29
2023-01-10T12:04:48.486Z,100006.77
2023-01-10T12:07:22.879Z,99997.48
2023-01-10T12:10:03.091Z,100003.60
2023-01-10T12:12:39.254Z,100011.38
2023-01-10T12:15:36.376Z,100011.70
2023-01-10T12:18:10.009Z,100007.90
2023-01-10T12:20:55.642Z,100006.55
2023-01-10T12:23:30.969Z,100003.02
2023-01-10T12:26:11.786Z,100003.63
2023-01-10T12:28:58.837Z,100007.04
2023-01-10T12:31:34.628Z,99995.36
2023-01-10T12:34:20.801Z,99999.45
2023-01-10T12:37:15.789Z,100002.16
2023-01-10T12:40:06.313Z,99998.04
2023-01-10T12:43:19.232Z,99990.15
2023-01-10T12:46:09.635Z,99990.21
2023-01-10T12:49:03.984Z,99984.12
2023-01-10T12:51:37.940Z,100006.43
2023-01-10T12:54:23.425Z,100013.98
2023-01-10T12:56:57.392Z,100013.05
2023-01-10T12:59:40.184Z,100019.44
2023-01-10T13:02:25.948Z,100025.77
2023-01-10T13:05:05.189Z,100030.80
2023-01-10T13:07:39.774Z,100029.56
2023-01-10T13:10:20.001Z,100030.80
2023-01-10T13:13:06.599Z,100025.36
2023-01-10T13:15:52.283Z,100038.34
2023-01-10T13:18:30.590Z,100042.58
2023-01-10T13:21:09.435Z,100051.48
2023-01-10T13:24:00.132Z,100052.24
2023-01-10T13:26:55.426Z,100057.85
2023-01-10T13:29:49.433Z,100065.45
2023-01-10T13:32:38.880Z,100071.16
2023-01-10T13:35:21.193Z,100075.67
2023-01-10T13:37:59.108Z,100077.70
2023-01-10T13:40:32.465Z,100080.35
2023-01-10T13:43:35.173Z,100063.34
2023-01-10T13:46:19.118Z,100072.60
2023-01-10T13:48:55.155Z,100074.81
2023-01-10T13:51:28.826Z,100074.73
2023-01-10T13:54:28.296Z,100069.88
2023-01-10T13:57:01.915Z,100073.54
2023-01-10T13:59:54.204Z,100073.79
2023-01-10T14:02:32.136Z,100081.95
2023-01-10T14:05:22.328Z,100089.69
2023-01-10T14:07:58.123Z,100081.20
2023-01-10T14:10:33.841Z,100081.56
2023-01-10T14:13:27.098Z,100089.15
2023-01-10T14:16:00.395Z,100088.56
2023-01-10T14:18:43.108Z,100079.42
2023-01-10T14:21:30.737Z,100080.46
2023-01-10T14:24:03.941Z,100072.42
2023-01-10T14:26:41.078Z,100082.34
2023-01-10T14:29:18.777Z,100077.20
2023-01-10T14:31:57.522Z,100070.42
2023-01-10T14:34:37.445Z,100082.88
2023-01-10T14:37:19.011Z,100086.39
2023-01-10T14:39:56.954Z,100092.88
2023-01-10T14:42:32.009Z,100096.61
2023-01-10T14:45:23.029Z,100097.38
2023-01-10T14:47:56.158Z,100096.91
2023-01-10T14:50:33.210Z,100096.23
2023-01-10T14:53:06.096Z,100102.73
2023-01-10T14:55:46.258Z,100110.07
2023-01-10T14:58:20.635Z,100122.54
2023-01-10T15:00:56.520Z,100129.02
2023-01-10T15:03:29.608Z,100133.16
2023-01-10T15:06:02.542Z,100131.75
2023-01-10T15:08:35.656Z,100117.46
2023-01-10T15:11:13.916Z,100126.48
2023-01-10T15:13:59.985Z,100128.96
2023-01-10T15:16:34.096Z,100133.11
2023-01-10T15:19:07.112Z,100139.34
2023-01-10T15:21:45.311Z,100141.11
2023-01-10T15:24:37.723Z,100143.01
2023-01-10T15:27:18.351Z,100144.14
2023-01-10T15:29:51.487Z,100144.39
2023-01-10T15:32:30.985Z,100138.14
2023-01-10T15:35:05.945Z,100141.30
2023-01-10T15:37:42.731Z,100147.39
2023-01-10T15:40:27.251Z,100133.88
2023-01-10T15:43:28.818Z,100144.45
2023-01-10T15:46:03.303Z,100149.14
2023-01-10T15:48:56.346Z,100149.00
2023-01-10T15:51:36.701Z,100148.25
2023-01-10T15:54:31.798Z,100140.67
2023-01-10T15:57:09.393Z,100148.71
2023-01-10T15:59:51.909Z,100137.55
2023-01-10T16:02:35.997Z,100152.31
2023-01-10T16:05:26.989Z,100158.98
2023-01-10T16:07:59.737Z,100165.08
2023-01-10T16:10:39.377Z,100168.54
2023-01-10T16:13:33.792Z,100178.30
2023-01-10T16:16:13.983Z,100187.96
2023-01-10T16:18:47.568Z,100187.77
2023-01-10T16:21:22.321Z,100193.52
2023-01-10T16:23:55.284Z,100192.73
2023-01-10T16:26:28.174Z,100197.18
2023-01-10T16:29:01.673Z,100205.79
2023-01-10T16:31:35.825Z,100198.52
2023-01-10T16:34:09.842Z,100200.77
2023-01-10T16:36:44.217Z,100206.52
2023-01-10T16:39:19.309Z,100211.30
2023-01-10T16:42:11.682Z,100215.63
2023-01-10T16:44:45.857Z,100221.91
2023-01-10T16:47:18.527Z,100218.63
2023-01-10T16:49:51.265Z,100232.74
2023-01-10T16:52:24.307Z,100242.27
2023-01-10T16:54:57.336Z,100243.52
2023-01-10T16:57:30.408Z,100255.99
2023-01-10T17:00:03.335Z,100265.72
2023-01-10T17:02:36.803Z,100274.95
2023-01-10T17:05:10.718Z,100276.30
2023-01-10T17:07:43.737Z,100278.30
2023-01-10T17:10:17.407Z,100270.27
2023-01-10T17:12:50.269Z,100285.34
2023-01-10T17:15:23.177Z,100294.24
2023-01-10T17:17:56.768Z,100296.02
2023-01-10T17:20:31.652Z,100299.27
2023-01-10T17:23:05.082Z,100298.05
2023-01-10T17:25:38.086Z,100297.17
2023-01-10T17:28:12.213Z,100284.29
2023-01-10T17:30:45.615Z,100284.89
2023-01-10T17:33:18.802Z,100299.22
2023-01-10T17:35:54.969Z,100290.40
2023-01-10T17:38:30.176Z,100301.81
2023-01-10T17:41:03.738Z,100305.17
2023-01-10T17:43:36.361Z,100312.08
2023-01-10T17:46:11.442Z,100309.98
2023-01-10T17:48:44.826Z,100331.45
2023-01-10T17:51:19.480Z,100338.61
2023-01-10T17:53:53.031Z,100339.69
2023-01-10T17:56:25.864Z,100346.61
2023-01-10T17:58:59.255Z,100340.86
2023-01-10T18:01:32.186Z,100350.58
2023-01-10T18:04:05.500Z,100350.25
2023-01-10T18:06:38.929Z,100346.84
2023-01-10T18:09:12.449Z,100352.27
2023-01-10T18:11:45.468Z,100352.31
2023-01-10T18:14:36.876Z,100352.56
2023-01-10T18:17:13.203Z,100356.84
2023-01-10T18:19:46.668Z,100356.90
2023-01-10T18:22:38.532Z,100351.98
2023-01-10T18:25:11.729Z,100353.38
2023-01-10T18:27:51.250Z,100353.67
2023-01-10T18:30:26.940Z,100351.39
2023-01-10T18:33:00.101Z,100346.73
2023-01-10T18:35:33.115Z,100355.79
2023-01-10T18:38:06.273Z,100358.29
2023-01-10T18:40:42.386Z,100355.47
2023-01-10T18:43:16.188Z,100369.38
2023-01-10T18:45:50.073Z,100375.92
2023-01-10T18:48:25.821Z,100383.75
2023-01-10T18:51:01.995Z,100388.48
2023-01-10T18:53:34.844Z,100390.16
2023-01-10T18:56:08.255Z,100393.61
2023-01-10T18:58:43.692Z,100401.98
2023-01-10T19:01:22.499Z,100396.67
2023-01-10T19:03:55.631Z,100397.68
2023-01-10T19:06:28.610Z,100411.20
2023-01-10T19:09:01.966Z,100415.23
2023-01-10T19:11:35.367Z,100412.20
2023-01-10T19:14:07.996Z,100419.46
2023-01-10T19:16:41.329Z,100416.93
2023-01-10T19:19:15.078Z,100422.44
2023-01-10T19:21:48.572Z,100438.01
2023-01-10T19:24:35.561Z,100435.88
2023-01-10T19:27:08.934Z,100441.80
2023-01-10T19:29:43.028Z,100452.03
2023-01-10T19:32:16.475Z,100464.06
2023-01-10T19:34:49.459Z,100468.75
2023-01-10T19:37:22.392Z,100476.66
2023-01-10T19:39:55.303Z,100496.67
2023-01-10T19:42:28.102Z,100503.16
2023-01-10T19:45:01.870Z,100502.60
2023-01-10T19:47:34.510Z,100493.73
2023-01-10T19:50:07.813Z,100479.11
2023-01-10T19:52:40.907Z,100505.41
2023-01-10T19:55:13.793Z,100508.13
2023-01-10T19:57:47.336Z,100509.20
2023-01-10T20:00:20.807Z,100507.39
2023-01-10T20:02:54.170Z,100509.09
2023-01-10T20:05:27.984Z,100515.17
2023-01-10T20:08:02.367Z,100528.64
2023-01-10T20:10:35.575Z,100520.05
2023-01-10T20:13:10.356Z,100517.55
2023-01-10T20:15:45.092Z,100518.27
2023-01-10T20:18:18.384Z,100524.41
2023-01-10T20:20:51.186Z,100529.21
2023-01-10T20:23:24.724Z,100534.90
2023-01-10T20:26:07.980Z,100536.63
2023-01-10T20:28:42.050Z,100518.00
2023-01-10T20:31:20.227Z,100527.48
2023-01-10T20:33:53.797Z,100506.11
2023-01-10T20:36:28.504Z,100501.85
2023-01-10T20:39:01.533Z,100510.63
2023-01-10T20:41:34.876Z,100515.64
2023-01-10T20:44:07.838Z,100518.11
2023-01-10T20:46:41.000Z,100517.98
2023-01-10T20:49:14.262Z,100500.58
2023-01-10T20:51:49.314Z,100492.31
2023-01-10T20:54:22.513Z,100506.75
2023-01-10T20:56:56.237Z,100529.52
2023-01-10T20:59:29.877Z,100516.77
2023-01-10T21:02:03.908Z,100519.66
2023-01-10T21:04:37.301Z,100534.73
2023-01-10T21:07:10.864Z,100515.51
2023-01-10T21:09:44.197Z,100524.83
2023-01-10T21:12:23.226Z,100527.96
2023-01-10T21:14:58.888Z,100526.17
2023-01-10T21:17:31.671Z,100507.90
2023-01-10T21:20:04.640Z,100516.92
2023-01-10T21:22:38.050Z,100510.59
2023-01-10T21:25:11.663Z,100508.11
2023-01-10T21:27:45.013Z,100496.31
2023-01-10T21:30:20.695Z,100489.10
2023-01-10T21:32:53.997Z,100492.36
2023-01-10T21:35:26.729Z,100498.64
2023-01-10T21:38:00.251Z,100491.77
2023-01-10T21:40:33.861Z,100486.50
2023-01-10T21:43:07.914Z,100507.98
2023-01-10T21:45:40.836Z,100502.86
2023-01-10T21:48:13.858Z,100502.09
2023-01-10T21:50:50.208Z,100504.86
2023-01-10T21:53:24.037Z,100504.50
2023-01-10T21:56:00.621Z,100511.50
2023-01-10T21:58:33.181Z,100508.95
2023-01-10T22:01:06.651Z,100530.48
2023-01-10T22:03:39.603Z,100546.47
2023-01-10T22:06:12.636Z,100548.25
2023-01-10T22:08:45.698Z,100544.95
2023-01-10T22:11:18.817Z,100558.74
2023-01-10T22:13:55.688Z,100561.97
2023-01-10T22:16:28.896Z,100562.48
2023-01-10T22:19:02.174Z,100566.34
2023-01-10T22:21:35.377Z,100570.71
2023-01-10T22:24:08.945Z,100570.83
2023-01-10T22:26:42.405Z,100569.79
2023-01-10T22:29:16.727Z,100575.05
2023-01-10T22:31:49.838Z,100579.05
2023-01-10T22:34:23.406Z,100586.06
2023-01-10T22:36:56.502Z,100598.64
2023-01-10T22:39:29.980Z,100591.90
2023-01-10T22:42:02.958Z,100597.62
2023-01-10T22:44:36.012Z,100611.73
2023-01-10T22:47:10.778Z,100611.16
2023-01-10T22:49:43.828Z,100616.89
2023-01-10T22:52:16.831Z,100623.85
2023-01-10T22:54:50.403Z,100627.77
2023-01-10T22:57:23.565Z,100623.21
2023-01-10T22:59:56.814Z,100629.52
2023-01-10T23:02:29.630Z,100627.77
2023-01-10T23:05:02.424Z,100642.75
2023-01-10T23:07:35.602Z,100640.20
2023-01-10T23:10:24.313Z,100656.02
2023-01-10T23:13:05.529Z,100653.28
2023-01-10T23:15:38.751Z,100658.39
2023-01-10T23:18:11.788Z,100669.53
2023-01-10T23:20:44.862Z,100675.11
2023-01-10T23:23:17.658Z,100679.48
2023-01-10T23:26:03.179Z,100681.43
2023-01-10T23:28:45.177Z,100690.95
2023-01-10T23:31:29.595Z,100690.61
2023-01-10T23:34:03.514Z,100682.67
2023-01-10T23:36:36.635Z,100701.34
2023-01-10T23:39:09.593Z,100688.83
2023-01-10T23:41:42.453Z,100708.23
2023-01-10T23:44:15.143Z,100718.81
2023-01-10T23:46:47.850Z,100714.69
2023-01-10T23:49:20.591Z,100720.80
2023-01-10T23:51:53.375Z,100735.05
2023-01-10T23:54:25.939Z,100738.63
2023-01-10T23:57:00.172Z,100739.56
2023-01-10T23:59:33.069Z,100749.75
